Time,TemperatureF,DewpointF,PressureIn,WindDirection,WindDirectionDegrees,WindSpeedMPH,WindSpeedGustMPH,Humidity,HourlyPrecipIn,Conditions,Clouds,dailyrainin,SoftwareType,DateUTC
2013-08-04 00:02:00,57.2,56.6,29.98,West,270,0.0,-999.0,98,-99.99,,,0.00,Acu-Link.com,2013-08-04 07:02:00,
2013-08-04 00:17:00,57.2,56.6,29.98,SE,135,2.0,-999.0,98,-99.99,,,0.00,Acu-Link.com,2013-08-04 07:17:00,
2013-08-04 00:32:00,57.2,56.6,29.98,East,90,0.0,-999.0,98,-99.99,,,0.00,Acu-Link.com,2013-08-04 07:32:00,
2013-08-04 00:47:00,55.4,54.8,29.98,West,270,0.0,-999.0,98,-99.99,,,0.00,Acu-Link.com,2013-08-04 07:47:00,
2013-08-04 01:02:00,55.4,54.8,29.98,West,270,0.0,-999.0,98,-99.99,,,0.00,Acu-Link.com,2013-08-04 08:02:00,
2013-08-04 01:18:00,55.4,54.8,29.98,ENE,67,0.0,-999.0,98,-99.99,,,0.00,Acu-Link.com,2013-08-04 08:18:00,
2013-08-04 01:33:00,55.4,54.8,29.98,SW,225,0.0,-999.0,98,-99.99,,,0.00,Acu-Link.com,2013-08-04 08:33:00,
2013-08-04 01:48:00,55.4,54.8,29.98,North,0,0.0,-999.0,98,-99.99,,,0.00,Acu-Link.com,2013-08-04 08:48:00,
2013-08-04 02:03:00,55.4,54.8,29.98,NE,45,0.0,-999.0,98,-99.99,,,0.00,Acu-Link.com,2013-08-04 09:03:00,
2013-08-04 02:18:00,55.4,54.8,29.98,East,90,0.0,-999.0,98,-99.99,,,0.00,Acu-Link.com,2013-08-04 09:18:00,
2013-08-04 02:33:00,53.6,53.0,29.98,NW,315,0.0,-999.0,98,-99.99,,,0.00,Acu-Link.com,2013-08-04 09:33:00,
2013-08-04 02:49:00,53.6,53.0,29.99,NE,45,0.0,-999.0,98,-99.99,,,0.00,Acu-Link.com,2013-08-04 09:49:00,
2013-08-04 03:04:00,53.6,53.0,29.99,NW,315,0.0,-999.0,98,-99.99,,,0.00,Acu-Link.com,2013-08-04 10:04:00,
2013-08-04 03:19:00,53.6,53.0,29.99,NW,315,0.0,-999.0,98,-99.99,,,0.00,Acu-Link.com,2013-08-04 10:19:00,
2013-08-04 03:34:00,53.6,53.0,30.00,ENE,67,0.0,-999.0,98,-99.99,,,0.00,Acu-Link.com,2013-08-04 10:34:00,
2013-08-04 03:49:00,51.8,51.3,29.99,ESE,112,0.0,-999.0,98,-99.99,,,0.00,Acu-Link.com,2013-08-04 10:49:00,
2013-08-04 04:04:00,51.8,51.3,29.99,SSW,202,0.0,-999.0,98,-99.99,,,0.00,Acu-Link.com,2013-08-04 11:04:00,
2013-08-04 04:20:00,51.8,51.3,29.99,East,90,0.0,-999.0,98,-99.99,,,0.00,Acu-Link.com,2013-08-04 11:20:00,
2013-08-04 04:34:00,51.8,51.3,29.99,East,90,0.0,-999.0,98,-99.99,,,0.00,Acu-Link.com,2013-08-04 11:34:00,
2013-08-04 04:50:00,51.8,51.3,29.99,SSW,202,0.0,-999.0,98,-99.99,,,0.00,Acu-Link.com,2013-08-04 11:50:00,
2013-08-04 05:05:00,51.8,51.3,29.99,SW,225,0.0,-999.0,98,-99.99,,,0.00,Acu-Link.com,2013-08-04 12:05:00,
2013-08-04 05:20:00,51.8,51.3,29.99,SW,225,0.0,-999.0,98,-99.99,,,0.00,Acu-Link.com,2013-08-04 12:20:00,
2013-08-04 05:35:00,50.0,49.5,29.99,ESE,112,0.0,-999.0,98,-99.99,,,0.00,Acu-Link.com,2013-08-04 12:35:00,
2013-08-04 05:50:00,50.0,49.5,29.99,East,90,0.0,-999.0,98,-99.99,,,0.01,Acu-Link.com,2013-08-04 12:50:00,
2013-08-04 06:05:00,50.0,49.5,30.00,NNE,22,0.0,-999.0,98,-99.99,,,0.01,Acu-Link.com,2013-08-04 13:05:00,
2013-08-04 06:20:00,50.0,49.5,30.00,NNW,337,0.0,-999.0,98,-99.99,,,0.01,Acu-Link.com,2013-08-04 13:20:00,
2013-08-04 06:36:00,50.0,49.5,30.00,NNW,337,0.0,-999.0,98,-99.99,,,0.01,Acu-Link.com,2013-08-04 13:36:00,
2013-08-04 07:06:00,51.8,51.3,30.01,South,180,0.0,-999.0,98,-99.99,,,0.01,Acu-Link.com,2013-08-04 14:06:00,
2013-08-04 07:21:00,51.8,51.3,30.01,SW,225,0.0,-999.0,98,-99.99,,,0.01,Acu-Link.com,2013-08-04 14:21:00,
2013-08-04 07:36:00,51.8,51.3,30.01,SSW,202,0.0,-999.0,98,-99.99,,,0.01,Acu-Link.com,2013-08-04 14:36:00,
2013-08-04 07:51:00,53.6,53.0,30.02,SSW,202,0.0,-999.0,98,-99.99,,,0.01,Acu-Link.com,2013-08-04 14:51:00,
2013-08-04 08:07:00,53.6,53.0,30.01,South,180,1.1,-999.0,98,-99.99,,,0.01,Acu-Link.com,2013-08-04 15:07:00,
2013-08-04 08:21:00,53.6,53.0,30.02,SW,225,0.0,-999.0,98,-99.99,,,0.01,Acu-Link.com,2013-08-04 15:21:00,
2013-08-04 08:37:00,55.4,54.8,30.02,SSW,202,0.0,-999.0,98,-99.99,,,0.01,Acu-Link.com,2013-08-04 15:37:00,
2013-08-04 08:52:00,55.4,54.8,30.01,WSW,247,0.0,-999.0,98,-99.99,,,0.01,Acu-Link.com,2013-08-04 15:52:00,
2013-08-04 09:07:00,57.2,56.6,30.01,SSW,202,1.6,-999.0,98,-99.99,,,0.01,Acu-Link.com,2013-08-04 16:07:00,
2013-08-04 09:23:00,57.2,56.6,30.01,WNW,292,1.6,-999.0,98,-99.99,,,0.01,Acu-Link.com,2013-08-04 16:23:00,
2013-08-04 09:38:00,59.0,58.4,30.01,West,270,1.1,-999.0,98,-99.99,,,0.01,Acu-Link.com,2013-08-04 16:38:00,
2013-08-04 09:53:00,62.6,58.0,30.01,SSW,202,0.0,-999.0,85,-99.99,,,0.01,Acu-Link.com,2013-08-04 16:53:00,
2013-08-04 10:08:00,62.6,53.8,30.01,North,0,2.7,-999.0,73,-99.99,,,0.01,Acu-Link.com,2013-08-04 17:08:00,
2013-08-04 10:23:00,64.4,56.3,30.00,West,270,0.0,-999.0,75,-99.99,,,0.01,Acu-Link.com,2013-08-04 17:23:00,
2013-08-04 10:38:00,66.2,57.3,30.00,ESE,112,0.0,-999.0,73,-99.99,,,0.01,Acu-Link.com,2013-08-04 17:38:00,
2013-08-04 10:54:00,69.8,57.9,30.00,SSE,157,0.0,-999.0,66,-99.99,,,0.01,Acu-Link.com,2013-08-04 17:54:00,
2013-08-04 11:09:00,71.6,58.8,30.00,SE,135,1.1,-999.0,64,-99.99,,,0.01,Acu-Link.com,2013-08-04 18:09:00,
2013-08-04 11:24:00,71.6,55.5,29.99,ESE,112,0.0,-999.0,57,-99.99,,,0.01,Acu-Link.com,2013-08-04 18:24:00,
2013-08-04 11:39:00,73.4,56.2,29.99,West,270,3.6,-999.0,55,-99.99,,,0.01,Acu-Link.com,2013-08-04 18:39:00,
2013-08-04 11:55:00,75.2,55.8,29.98,SSE,157,2.7,-999.0,51,-99.99,,,0.01,Acu-Link.com,2013-08-04 18:55:00,
2013-08-04 12:10:00,75.2,56.9,29.98,SE,135,1.6,-999.0,53,-99.99,,,0.01,Acu-Link.com,2013-08-04 19:10:00,
2013-08-04 12:25:00,77.0,57.5,29.97,WNW,292,1.1,-999.0,51,-99.99,,,0.01,Acu-Link.com,2013-08-04 19:25:00,
2013-08-04 12:40:00,78.8,57.4,29.97,NE,45,3.6,-999.0,48,-99.99,,,0.01,Acu-Link.com,2013-08-04 19:40:00,
2013-08-04 12:55:00,77.0,55.2,29.96,NW,315,2.0,-999.0,47,-99.99,,,0.01,Acu-Link.com,2013-08-04 19:55:00,
2013-08-04 13:11:00,78.8,56.8,29.96,SSE,157,1.6,-999.0,47,-99.99,,,0.01,Acu-Link.com,2013-08-04 20:11:00,
2013-08-04 13:26:00,80.6,56.6,29.96,West,270,2.7,-999.0,44,-99.99,,,0.01,Acu-Link.com,2013-08-04 20:26:00,
2013-08-04 13:41:00,80.6,54.0,29.95,NNE,22,3.1,-999.0,40,-99.99,,,0.01,Acu-Link.com,2013-08-04 20:41:00,
2013-08-04 13:56:00,80.6,52.6,29.95,West,270,0.0,-999.0,38,-99.99,,,0.01,Acu-Link.com,2013-08-04 20:56:00,
2013-08-04 14:11:00,80.6,51.9,29.95,NNE,22,4.0,-999.0,37,-99.99,,,0.01,Acu-Link.com,2013-08-04 21:11:00,
2013-08-04 14:26:00,82.4,50.4,29.94,ENE,67,1.6,-999.0,33,-99.99,,,0.01,Acu-Link.com,2013-08-04 21:26:00,
2013-08-04 14:41:00,82.4,51.2,29.94,NNW,337,3.6,-999.0,34,-99.99,,,0.01,Acu-Link.com,2013-08-04 21:41:00,
2013-08-04 14:56:00,82.4,48.7,29.94,NNE,22,3.6,-999.0,31,-99.99,,,0.01,Acu-Link.com,2013-08-04 21:56:00,
2013-08-04 15:27:00,82.4,49.6,29.93,ENE,67,2.7,-999.0,32,-99.99,,,0.01,Acu-Link.com,2013-08-04 22:27:00,
2013-08-04 15:41:00,80.6,48.8,29.92,NE,45,3.1,-999.0,33,-99.99,,,0.01,Acu-Link.com,2013-08-04 22:41:00,
2013-08-04 15:57:00,80.6,46.3,29.92,NE,45,2.0,-999.0,30,-99.99,,,0.01,Acu-Link.com,2013-08-04 22:57:00,
2013-08-04 16:12:00,82.4,46.0,29.92,North,0,2.7,-999.0,28,-99.99,,,0.01,Acu-Link.com,2013-08-04 23:12:00,
2013-08-04 16:27:00,78.8,44.7,29.91,ESE,112,1.1,-999.0,30,-99.99,,,0.01,Acu-Link.com,2013-08-04 23:27:00,
2013-08-04 16:43:00,78.8,47.2,29.92,NNW,337,1.1,-999.0,33,-99.99,,,0.01,Acu-Link.com,2013-08-04 23:43:00,
2013-08-04 16:58:00,78.8,49.6,29.91,SW,225,2.0,-999.0,36,-99.99,,,0.01,Acu-Link.com,2013-08-04 23:58:00,
2013-08-04 17:13:00,77.0,55.2,29.91,NNE,22,1.6,-999.0,47,-99.99,,,0.01,Acu-Link.com,2013-08-05 00:13:00,
2013-08-04 17:28:00,77.0,54.6,29.91,South,180,2.0,-999.0,46,-99.99,,,0.01,Acu-Link.com,2013-08-05 00:28:00,
2013-08-04 17:43:00,77.0,54.0,29.91,SE,135,0.0,-999.0,45,-99.99,,,0.01,Acu-Link.com,2013-08-05 00:43:00,
2013-08-04 17:58:00,77.0,54.6,29.91,SSW,202,1.1,-999.0,46,-99.99,,,0.01,Acu-Link.com,2013-08-05 00:58:00,
2013-08-04 18:13:00,77.0,55.2,29.92,NE,45,2.7,-999.0,47,-99.99,,,0.01,Acu-Link.com,2013-08-05 01:13:00,
2013-08-04 18:28:00,75.2,53.6,29.91,South,180,0.0,-999.0,47,-99.99,,,0.01,Acu-Link.com,2013-08-05 01:28:00,
2013-08-04 18:43:00,75.2,52.4,29.91,WNW,292,0.0,-999.0,45,-99.99,,,0.01,Acu-Link.com,2013-08-05 01:43:00,
2013-08-04 18:59:00,75.2,53.6,29.91,West,270,2.7,-999.0,47,-99.99,,,0.01,Acu-Link.com,2013-08-05 01:59:00,
2013-08-04 19:14:00,73.4,53.1,29.91,SSW,202,0.0,-999.0,49,-99.99,,,0.01,Acu-Link.com,2013-08-05 02:14:00,
2013-08-04 19:29:00,73.4,53.6,29.91,West,270,2.7,-999.0,50,-99.99,,,0.01,Acu-Link.com,2013-08-05 02:29:00,
2013-08-04 19:44:00,73.4,53.6,29.91,ESE,112,0.0,-999.0,50,-99.99,,,0.01,Acu-Link.com,2013-08-05 02:44:00,
2013-08-04 19:59:00,71.6,53.0,29.91,ESE,112,0.0,-999.0,52,-99.99,,,0.01,Acu-Link.com,2013-08-05 02:59:00,
2013-08-04 20:15:00,69.8,52.4,29.91,ESE,112,0.0,-999.0,54,-99.99,,,0.01,Acu-Link.com,2013-08-05 03:15:00,
2013-08-04 20:29:00,69.8,54.3,29.91,ESE,112,0.0,-999.0,58,-99.99,,,0.01,Acu-Link.com,2013-08-05 03:29:00,
2013-08-04 20:45:00,68.0,53.6,29.91,ESE,112,0.0,-999.0,60,-99.99,,,0.01,Acu-Link.com,2013-08-05 03:45:00,
2013-08-04 21:00:00,68.0,53.6,29.91,ESE,112,0.0,-999.0,60,-99.99,,,0.01,Acu-Link.com,2013-08-05 04:00:00,
2013-08-04 21:15:00,64.4,50.7,29.91,ENE,67,0.0,-999.0,61,-99.99,,,0.01,Acu-Link.com,2013-08-05 04:15:00,
2013-08-04 21:31:00,64.4,52.4,29.92,NE,45,0.0,-999.0,65,-99.99,,,0.01,Acu-Link.com,2013-08-05 04:31:00,
2013-08-04 21:46:00,64.4,53.2,29.92,NE,45,0.0,-999.0,67,-99.99,,,0.01,Acu-Link.com,2013-08-05 04:46:00,
2013-08-04 22:16:00,62.6,52.7,29.92,North,0,0.0,-999.0,70,-99.99,,,0.01,Acu-Link.com,2013-08-05 05:16:00,
2013-08-04 22:31:00,62.6,54.6,29.92,ENE,67,0.0,-999.0,75,-99.99,,,0.01,Acu-Link.com,2013-08-05 05:31:00,
2013-08-04 22:47:00,62.6,53.8,29.93,ESE,112,0.0,-999.0,73,-99.99,,,0.01,Acu-Link.com,2013-08-05 05:47:00,
2013-08-04 23:02:00,60.8,52.8,29.93,ENE,67,0.0,-999.0,75,-99.99,,,0.01,Acu-Link.com,2013-08-05 06:02:00,
2013-08-04 23:17:00,60.8,53.2,29.93,ESE,112,0.0,-999.0,76,-99.99,,,0.01,Acu-Link.com,2013-08-05 06:17:00,
2013-08-04 23:33:00,59.0,52.1,29.94,East,90,0.0,-999.0,78,-99.99,,,0.01,Acu-Link.com,2013-08-05 06:33:00,
2013-08-04 23:48:00,59.0,53.2,29.94,NE,45,0.0,-999.0,81,-99.99,,,0.01,Acu-Link.com,2013-08-05 06:48:00,